Canefield Airport

Cloudy
28oC (82oF)

Cloudy


Winds: South easterly @ 03kts / 06km/h

Humidity: 63%

Barometric Pressure: 1013 mb

Accumulated Rainfall for March: 4.2 mm

Updated: 16:00 local time (20:00 UTC)

Douglas-Charles Airport

Partly cloudy
26oC (79oF)

Partly cloudy


Winds: East south easterly @ 10kts / 19km/h

Humidity: 77%

Barometric Pressure: 1016 mb

Accumulated Rainfall for March: 3.3 mm

Updated: 18:00 local time (22:00 UTC)

Satellite Imagery

Satellite Imagery
Click image for larger view. (Source: National Hurricane Center).

Aviation Routine Report (METAR)

Douglas-Charles: METAR TDPD 072200Z 12010KT 9999 SCT017 26/22 Q1016==
Canefield: METAR TDCF 072000Z 14003KT 9999 BKN018 28/21 Q1013=